Time;durP1;ratioP1;P1;durP2;ratioP2;P2;SDS_P1;SDS_P2;PMS_P1;PMS_P2;Temp;Humidity;BMP_temperature;BMP_pressure;BME280_temperature;BME280_humidity;BME280_pressure;Samples;Min_cycle;Max_cycle;Signal;HPM_P1;HPM_P2
2023/07/11 00:01:23;;;;;;;4.28;1.92;;;20.10;57.20;;;;;;5051825;28;20051;-68
2023/07/11 00:03:49;;;;;;;3.05;1.35;;;20.10;57.30;;;;;;5052485;28;20037;-68
2023/07/11 00:06:18;;;;;;;3.72;1.27;;;20.10;57.40;;;;;;5051693;28;20485;-68
2023/07/11 00:08:43;;;;;;;3.55;1.58;;;20.10;57.50;;;;;;5051345;28;20120;-68
2023/07/11 00:11:11;;;;;;;3.08;1.38;;;20.10;57.50;;;;;;5034908;28;20124;-68
2023/07/11 00:13:39;;;;;;;2.17;1.20;;;20.10;57.50;;;;;;5034745;28;20094;-68
2023/07/11 00:16:10;;;;;;;3.53;1.35;;;20.10;57.40;;;;;;5051857;28;20041;-68
2023/07/11 00:18:36;;;;;;;3.67;1.60;;;20.10;57.40;;;;;;5051024;28;20041;-68
2023/07/11 00:21:04;;;;;;;3.35;1.33;;;20.10;57.30;;;;;;5035629;28;20053;-68
2023/07/11 00:23:30;;;;;;;4.35;1.50;;;20.10;57.30;;;;;;5037953;28;20071;-68
2023/07/11 00:25:56;;;;;;;4.22;1.40;;;20.10;57.30;;;;;;5037952;28;20177;-68
2023/07/11 00:28:22;;;;;;;4.18;1.50;;;20.10;57.40;;;;;;5054291;28;20101;-68
2023/07/11 00:30:51;;;;;;;2.70;1.30;;;20.10;57.40;;;;;;5054727;28;20119;-68
2023/07/11 00:33:17;;;;;;;3.95;1.50;;;20.10;57.40;;;;;;5054547;28;20407;-68
2023/07/11 00:35:49;;;;;;;4.47;1.13;;;20.10;57.30;;;;;;5054268;28;20044;-68
2023/07/11 00:38:15;;;;;;;4.32;1.83;;;20.10;57.30;;;;;;5072196;28;20340;-69
2023/07/11 00:40:43;;;;;;;2.97;1.40;;;20.10;57.30;;;;;;5054220;28;20036;-69
2023/07/11 00:43:13;;;;;;;2.40;1.20;;;20.10;57.20;;;;;;5054859;28;20166;-69
2023/07/11 00:46:00;;;;;;;2.95;1.40;;;20.10;57.20;;;;;;5054708;28;20066;-69
2023/07/11 00:48:26;;;;;;;3.42;1.48;;;20.10;57.10;;;;;;5053922;28;20083;-68
2023/07/11 00:50:53;;;;;;;4.30;1.20;;;20.10;57.20;;;;;;5038236;28;20087;-68
2023/07/11 00:53:19;;;;;;;1.90;1.27;;;20.10;57.20;;;;;;5054629;28;20053;-68
2023/07/11 00:55:46;;;;;;;4.30;1.27;;;20.10;57.30;;;;;;5054429;28;20127;-68
2023/07/11 00:58:14;;;;;;;3.88;1.50;;;20.10;57.30;;;;;;5054040;28;20094;-68
2023/07/11 01:00:41;;;;;;;4.10;1.73;;;20.10;57.40;;;;;;5053713;28;20040;-68
2023/07/11 01:03:06;;;;;;;2.67;1.30;;;20.00;57.80;;;;;;5054442;28;20028;-68
2023/07/11 01:05:32;;;;;;;4.10;1.30;;;20.10;57.40;;;;;;5053981;28;20043;-68
2023/07/11 01:07:58;;;;;;;2.63;1.38;;;20.00;57.40;;;;;;5037059;28;20040;-68
2023/07/11 01:10:24;;;;;;;3.30;1.30;;;20.00;57.40;;;;;;5037671;28;20182;-68
2023/07/11 01:12:49;;;;;;;4.22;1.65;;;20.00;57.50;;;;;;5071954;28;20040;-68
2023/07/11 01:15:16;;;;;;;4.15;1.50;;;20.00;57.70;;;;;;5053827;28;20352;-68
2023/07/11 01:17:42;;;;;;;2.65;1.35;;;20.00;57.90;;;;;;5053235;28;20051;-68
2023/07/11 01:20:09;;;;;;;2.88;1.63;;;19.90;57.70;;;;;;5054075;28;20028;-68
2023/07/11 01:22:37;;;;;;;3.28;1.40;;;19.90;57.70;;;;;;5037063;28;20052;-68
2023/07/11 01:25:14;;;;;;;3.80;1.73;;;19.90;57.70;;;;;;5053609;28;20072;-69
2023/07/11 01:27:46;;;;;;;4.15;1.50;;;19.90;57.80;;;;;;5053182;28;20048;-68
2023/07/11 01:30:15;;;;;;;3.70;1.38;;;19.80;58.10;;;;;;5037081;28;20123;-69
2023/07/11 01:32:41;;;;;;;3.00;1.70;;;19.80;58.10;;;;;;5053207;28;20048;-69
2023/07/11 01:35:07;;;;;;;3.75;1.50;;;19.80;58.10;;;;;;5053662;28;20063;-69
2023/07/11 01:37:33;;;;;;;3.33;1.48;;;19.80;58.10;;;;;;5036692;28;20045;-69
2023/07/11 01:39:59;;;;;;;3.90;1.98;;;19.70;58.10;;;;;;5052882;28;20858;-69
2023/07/11 01:42:26;;;;;;;3.65;1.42;;;19.70;58.20;;;;;;5037418;28;20047;-68
2023/07/11 01:44:51;;;;;;;5.22;1.60;;;19.70;58.30;;;;;;5053457;28;20045;-69
2023/07/11 01:47:17;;;;;;;4.68;1.80;;;19.70;58.40;;;;;;5053411;28;20052;-69
2023/07/11 01:49:43;;;;;;;2.05;1.50;;;19.60;58.30;;;;;;5052985;28;20476;-69
2023/07/11 01:52:21;;;;;;;3.25;1.13;;;19.60;58.50;;;;;;5053481;28;20040;-68
2023/07/11 01:54:48;;;;;;;4.10;1.65;;;19.60;58.30;;;;;;5052887;28;20056;-69
2023/07/11 01:57:15;;;;;;;3.53;1.50;;;19.50;58.40;;;;;;5053341;28;20055;-68
2023/07/11 01:59:40;;;;;;;3.55;1.38;;;19.50;58.40;;;;;;5070711;28;20044;-68
2023/07/11 02:02:07;;;;;;;3.85;1.55;;;19.40;58.40;;;;;;5068696;28;20081;-69
2023/07/11 02:04:34;;;;;;;2.40;1.20;;;19.40;58.60;;;;;;5053329;28;20048;-70
2023/07/11 02:07:01;;;;;;;2.95;1.90;;;19.40;58.80;;;;;;5053032;28;20387;-70
2023/07/11 02:09:26;;;;;;;2.10;1.10;;;19.40;58.80;;;;;;5053138;28;20041;-69
2023/07/11 02:11:52;;;;;;;3.60;1.55;;;19.30;58.70;;;;;;5052871;28;20464;-69
2023/07/11 02:14:19;;;;;;;2.03;1.10;;;19.30;58.70;;;;;;5053212;28;20044;-70
2023/07/11 02:16:50;;;;;;;2.75;1.25;;;19.20;58.70;;;;;;5053117;28;20049;-70
2023/07/11 02:19:18;;;;;;;3.08;1.60;;;19.30;58.90;;;;;;5049206;28;20460;-70
2023/07/11 02:21:45;;;;;;;2.83;1.38;;;19.20;58.90;;;;;;5053393;28;20131;-70
2023/07/11 02:24:12;;;;;;;4.15;1.38;;;19.20;58.80;;;;;;5053022;28;20041;-69
2023/07/11 02:26:38;;;;;;;4.38;1.48;;;19.20;58.80;;;;;;5052821;28;20047;-69
2023/07/11 02:29:05;;;;;;;3.80;1.63;;;19.20;58.80;;;;;;5052824;28;20048;-69
2023/07/11 02:31:33;;;;;;;2.80;1.63;;;19.10;58.90;;;;;;5052761;28;20076;-70
2023/07/11 02:33:59;;;;;;;2.75;1.80;;;19.20;59.00;;;;;;5052089;28;20380;-69
2023/07/11 02:36:25;;;;;;;3.50;1.77;;;19.10;59.20;;;;;;5052926;28;20442;-69
2023/07/11 02:38:51;;;;;;;5.25;2.20;;;19.10;59.30;;;;;;5052740;28;20456;-70
2023/07/11 02:41:18;;;;;;;2.35;1.33;;;19.00;59.50;;;;;;5052669;28;20123;-70
2023/07/11 02:43:44;;;;;;;3.55;1.60;;;18.90;59.50;;;;;;5056319;28;20044;-69
2023/07/11 02:46:10;;;;;;;3.72;1.95;;;18.90;59.60;;;;;;5056623;28;20472;-69
2023/07/11 02:48:36;;;;;;;4.85;2.55;;;18.80;59.70;;;;;;5039956;28;20087;-69
2023/07/11 02:51:01;;;;;;;5.22;2.47;;;18.80;60.30;;;;;;5056761;28;20059;-69
2023/07/11 02:53:27;;;;;;;4.00;1.70;;;18.80;60.70;;;;;;5040221;28;20040;-69
2023/07/11 02:55:53;;;;;;;5.05;3.17;;;18.70;60.80;;;;;;5056331;28;20048;-69
2023/07/11 02:58:19;;;;;;;4.90;2.55;;;18.70;61.30;;;;;;5056160;28;20037;-70
2023/07/11 03:00:49;;;;;;;4.80;1.70;;;18.60;61.80;;;;;;5056508;28;20081;-69
2023/07/11 03:03:15;;;;;;;4.50;2.15;;;18.50;61.70;;;;;;5039990;28;20087;-69
2023/07/11 03:05:49;;;;;;;4.97;2.53;;;18.50;62.00;;;;;;5056120;28;20084;-70
2023/07/11 03:08:15;;;;;;;4.25;2.78;;;18.40;62.50;;;;;;5056162;28;20051;-69
2023/07/11 03:10:41;;;;;;;6.60;2.78;;;18.40;62.60;;;;;;5056302;28;20349;-69
2023/07/11 03:13:07;;;;;;;7.65;3.30;;;18.30;62.80;;;;;;5039545;28;20032;-69
2023/07/11 03:15:37;;;;;;;5.78;3.35;;;18.20;63.10;;;;;;5055660;28;20058;-69
2023/07/11 03:18:03;;;;;;;7.40;3.38;;;18.10;63.40;;;;;;5055750;28;20046;-70
2023/07/11 03:20:29;;;;;;;4.97;3.22;;;18.00;63.80;;;;;;5056166;28;20539;-70
2023/07/11 03:22:55;;;;;;;7.50;3.25;;;17.90;64.10;;;;;;5055547;28;20044;-71
2023/07/11 03:25:21;;;;;;;5.75;3.13;;;17.70;64.50;;;;;;5055331;28;20051;-71
2023/07/11 03:27:47;;;;;;;6.57;2.92;;;17.60;64.90;;;;;;5038781;28;20037;-71
2023/07/11 03:30:13;;;;;;;5.00;2.80;;;17.50;65.30;;;;;;5055736;28;20039;-70
2023/07/11 03:32:38;;;;;;;7.30;2.85;;;17.40;65.70;;;;;;5055756;28;20036;-70
2023/07/11 03:35:04;;;;;;;4.93;3.00;;;17.40;66.10;;;;;;5039092;28;20037;-68
2023/07/11 03:37:31;;;;;;;6.85;3.15;;;17.30;66.40;;;;;;5055064;28;20086;-68
2023/07/11 03:39:56;;;;;;;4.45;3.03;;;17.30;66.90;;;;;;5055304;28;20028;-68
2023/07/11 03:42:22;;;;;;;3.40;2.30;;;17.20;67.10;;;;;;5039010;28;20032;-68
2023/07/11 03:44:48;;;;;;;4.32;2.30;;;17.20;67.20;;;;;;5055683;28;20196;-68
2023/07/11 03:47:13;;;;;;;3.67;1.80;;;17.10;67.20;;;;;;5038632;28;20523;-68
2023/07/11 03:49:39;;;;;;;5.55;2.40;;;17.20;67.30;;;;;;5055641;28;20048;-67
2023/07/11 03:52:05;;;;;;;4.88;2.20;;;17.20;67.40;;;;;;5055681;28;20533;-68
2023/07/11 03:54:31;;;;;;;4.88;2.38;;;17.20;67.50;;;;;;5054280;28;20105;-68
2023/07/11 03:56:56;;;;;;;4.90;2.40;;;17.20;67.50;;;;;;5038678;28;20048;-68
2023/07/11 03:59:22;;;;;;;4.40;1.63;;;17.20;67.50;;;;;;5055066;28;20044;-69
2023/07/11 04:01:48;;;;;;;4.82;2.50;;;17.30;67.40;;;;;;5054918;28;20115;-68
2023/07/11 04:04:14;;;;;;;5.90;2.97;;;17.30;67.40;;;;;;5038436;28;20119;-68
2023/07/11 04:06:40;;;;;;;3.35;2.05;;;17.40;67.50;;;;;;5054710;28;20080;-68
2023/07/11 04:09:06;;;;;;;3.33;2.10;;;17.40;67.60;;;;;;5021743;28;20098;-69
2023/07/11 04:11:32;;;;;;;4.07;2.17;;;17.40;67.60;;;;;;5055353;28;20040;-69
2023/07/11 04:13:57;;;;;;;3.83;2.47;;;17.50;67.50;;;;;;5038588;28;20441;-69
2023/07/11 04:16:23;;;;;;;4.35;2.60;;;17.50;67.40;;;;;;5021070;28;20047;-69
2023/07/11 04:18:49;;;;;;;5.63;2.65;;;17.60;67.40;;;;;;5054519;28;20058;-69
2023/07/11 04:21:16;;;;;;;3.50;2.33;;;17.60;67.30;;;;;;5054578;28;20045;-69
2023/07/11 04:23:43;;;;;;;5.57;2.53;;;17.70;67.60;;;;;;5054744;28;20491;-69
2023/07/11 04:26:08;;;;;;;5.32;2.90;;;17.70;67.70;;;;;;5054820;28;20040;-69
2023/07/11 04:28:34;;;;;;;5.40;2.85;;;17.80;68.00;;;;;;5054034;28;20376;-69
2023/07/11 04:31:00;;;;;;;6.28;3.30;;;17.80;68.00;;;;;;5037968;28;20044;-69
2023/07/11 04:33:25;;;;;;;4.07;2.10;;;17.90;68.20;;;;;;5054259;28;20041;-69
2023/07/11 04:35:51;;;;;;;5.40;3.00;;;17.90;68.10;;;;;;5054606;28;20079;-69
2023/07/11 04:38:17;;;;;;;7.57;4.10;;;17.90;67.90;;;;;;5054484;28;20533;-69
2023/07/11 04:40:45;;;;;;;5.80;2.72;;;17.90;68.10;;;;;;5054143;28;20044;-69
2023/07/11 04:43:11;;;;;;;5.70;3.22;;;18.00;68.10;;;;;;5054674;28;20111;-69
2023/07/11 04:45:36;;;;;;;7.82;3.88;;;18.00;68.40;;;;;;5052694;28;20131;-70
2023/07/11 04:48:02;;;;;;;8.60;4.47;;;18.00;68.10;;;;;;5038280;28;20044;-70
2023/07/11 04:50:28;;;;;;;9.60;4.45;;;18.10;68.50;;;;;;5054101;28;20508;-70
2023/07/11 04:52:54;;;;;;;8.88;4.32;;;18.10;68.70;;;;;;5054656;28;20116;-69
2023/07/11 04:55:19;;;;;;;7.88;4.30;;;18.10;68.90;;;;;;5054291;28;20048;-69
2023/07/11 04:57:45;;;;;;;7.90;4.88;;;18.10;69.00;;;;;;5053695;28;20040;-70
2023/07/11 05:00:12;;;;;;;8.38;4.35;;;18.20;69.20;;;;;;5037686;28;20060;-70
2023/07/11 05:02:37;;;;;;;9.30;4.82;;;18.10;69.30;;;;;;5054176;28;20079;-69
2023/07/11 05:05:03;;;;;;;8.93;5.28;;;18.20;69.60;;;;;;5053176;28;20064;-69
2023/07/11 05:07:29;;;;;;;11.43;5.25;;;18.20;69.80;;;;;;5037518;28;20127;-70
2023/07/11 05:09:55;;;;;;;8.48;4.95;;;18.20;70.00;;;;;;5053805;28;20054;-70
2023/07/11 05:12:21;;;;;;;10.18;5.22;;;18.20;70.40;;;;;;5037787;28;20074;-70
2023/07/11 05:14:46;;;;;;;10.18;5.20;;;18.20;70.60;;;;;;5054178;28;20111;-70
2023/07/11 05:17:12;;;;;;;7.68;5.82;;;18.20;71.00;;;;;;5053647;28;20044;-70
2023/07/11 05:19:38;;;;;;;10.25;6.40;;;18.30;71.20;;;;;;5037195;28;20047;-70
2023/07/11 05:22:03;;;;;;;6.72;4.70;;;18.40;71.20;;;;;;5036578;28;20103;-70
2023/07/11 05:24:30;;;;;;;7.68;5.22;;;18.60;71.30;;;;;;5053687;28;20070;-69
2023/07/11 05:26:56;;;;;;;12.07;5.95;;;18.80;71.10;;;;;;5036976;28;20369;-69
2023/07/11 05:29:23;;;;;;;6.82;5.30;;;19.00;70.70;;;;;;5053653;28;20037;-69
2023/07/11 05:31:48;;;;;;;7.55;5.32;;;19.20;70.30;;;;;;5037296;28;20056;-69
2023/07/11 05:34:14;;;;;;;7.95;5.25;;;19.50;69.60;;;;;;5053788;28;20113;-69
2023/07/11 05:36:40;;;;;;;8.68;4.88;;;19.70;69.00;;;;;;5036647;28;20052;-69
2023/07/11 05:39:10;;;;;;;8.82;5.95;;;19.90;68.70;;;;;;5053634;28;20115;-69
2023/07/11 05:41:38;;;;;;;8.82;5.50;;;20.10;67.50;;;;;;5071564;28;20036;-69
2023/07/11 05:44:04;;;;;;;11.85;6.03;;;20.40;66.80;;;;;;5052942;28;20054;-69
2023/07/11 05:46:30;;;;;;;7.45;5.03;;;20.50;65.90;;;;;;5031496;28;20032;-69
2023/07/11 05:48:57;;;;;;;9.80;5.22;;;20.70;65.40;;;;;;5036390;28;20044;-69
2023/07/11 05:51:24;;;;;;;9.13;5.28;;;20.90;65.00;;;;;;5053622;28;20079;-69
2023/07/11 05:53:50;;;;;;;8.90;5.00;;;21.10;64.10;;;;;;5035858;28;20040;-69
2023/07/11 05:56:19;;;;;;;10.55;5.65;;;21.30;63.70;;;;;;5053048;28;20044;-69
2023/07/11 05:58:47;;;;;;;6.72;4.70;;;21.60;63.10;;;;;;5053059;28;20044;-69
2023/07/11 06:01:17;;;;;;;7.70;4.60;;;21.80;62.40;;;;;;5051742;28;20150;-70
2023/07/11 06:03:46;;;;;;;9.95;4.90;;;22.00;61.60;;;;;;5036248;28;20029;-70
2023/07/11 06:06:14;;;;;;;9.55;5.38;;;22.20;61.20;;;;;;5020195;28;20086;-70
2023/07/11 06:08:40;;;;;;;7.30;5.22;;;22.40;60.20;;;;;;5052824;28;20055;-70
2023/07/11 06:11:06;;;;;;;10.68;4.28;;;22.70;59.70;;;;;;5052213;28;20041;-70
2023/07/11 06:13:34;;;;;;;9.23;5.78;;;22.90;59.10;;;;;;5048377;28;20063;-70
2023/07/11 06:16:03;;;;;;;11.43;5.32;;;23.00;58.90;;;;;;5052116;28;20036;-69
2023/07/11 06:18:32;;;;;;;7.68;4.70;;;23.10;58.00;;;;;;5052846;28;20029;-69
2023/07/11 06:20:58;;;;;;;8.55;4.70;;;23.20;57.90;;;;;;5053531;28;20062;-70
2023/07/11 06:23:24;;;;;;;8.68;4.88;;;23.30;57.70;;;;;;5053160;28;20065;-70
2023/07/11 06:25:50;;;;;;;7.22;4.50;;;23.40;57.50;;;;;;5037495;28;20079;-70
2023/07/11 06:28:16;;;;;;;9.27;4.93;;;23.40;57.20;;;;;;5020484;28;20437;-70
2023/07/11 06:30:43;;;;;;;6.72;4.38;;;23.60;57.00;;;;;;5053642;28;20037;-70
2023/07/11 06:33:13;;;;;;;10.68;5.28;;;23.80;56.30;;;;;;5037016;28;20472;-70
2023/07/11 06:35:42;;;;;;;9.30;4.35;;;23.80;55.90;;;;;;5036925;28;20036;-69
2023/07/11 06:38:08;;;;;;;5.97;4.07;;;23.90;55.80;;;;;;5049471;28;20383;-70
2023/07/11 06:40:34;;;;;;;7.82;4.90;;;24.00;55.90;;;;;;5037084;28;20472;-70
2023/07/11 06:42:59;;;;;;;6.65;4.00;;;24.10;55.90;;;;;;5053516;28;20037;-70
2023/07/11 06:45:25;;;;;;;8.60;4.57;;;24.20;55.50;;;;;;5053434;28;20086;-70
2023/07/11 06:47:51;;;;;;;6.93;4.60;;;24.30;55.00;;;;;;5025046;28;20107;-70
2023/07/11 06:50:17;;;;;;;7.35;4.70;;;24.30;54.70;;;;;;5014841;28;20045;-70
2023/07/11 06:52:43;;;;;;;8.02;5.05;;;24.40;54.40;;;;;;5018661;28;20043;-71
2023/07/11 06:55:10;;;;;;;7.25;4.40;;;24.30;54.70;;;;;;4997220;28;20460;-70
2023/07/11 06:57:36;;;;;;;6.10;3.92;;;24.40;54.90;;;;;;5028816;28;20453;-70
2023/07/11 07:00:01;;;;;;;10.50;5.28;;;24.50;54.50;;;;;;5012451;28;20076;-70
2023/07/11 07:02:27;;;;;;;7.70;4.60;;;24.60;54.10;;;;;;5030594;28;20045;-70
2023/07/11 07:04:53;;;;;;;7.80;4.78;;;24.70;53.70;;;;;;5031699;28;20041;-71
2023/07/11 07:07:19;;;;;;;6.88;3.97;;;24.60;53.60;;;;;;5030410;28;20086;-70
2023/07/11 07:09:45;;;;;;;15.30;6.15;;;24.60;53.80;;;;;;5036419;28;20653;-70
2023/07/11 07:12:11;;;;;;;7.55;4.53;;;24.60;53.60;;;;;;5021199;28;20041;-70
2023/07/11 07:14:37;;;;;;;6.57;4.47;;;24.60;53.80;;;;;;5037059;28;20493;-70
2023/07/11 07:17:04;;;;;;;7.30;4.45;;;24.60;54.30;;;;;;5014297;28;20056;-70
2023/07/11 07:19:29;;;;;;;8.20;4.53;;;24.70;54.00;;;;;;5030200;28;20045;-70
2023/07/11 07:21:55;;;;;;;8.13;4.45;;;24.80;53.30;;;;;;5028889;28;20071;-71
2023/07/11 07:24:21;;;;;;;7.82;4.10;;;24.80;53.70;;;;;;5025210;28;20041;-70
2023/07/11 07:26:46;;;;;;;9.43;4.35;;;24.80;53.40;;;;;;5029701;28;20186;-70
2023/07/11 07:29:12;;;;;;;5.80;3.60;;;24.70;53.80;;;;;;5031755;28;20132;-71
2023/07/11 07:31:38;;;;;;;6.10;4.22;;;24.80;54.00;;;;;;5032320;28;20049;-71
2023/07/11 07:34:04;;;;;;;10.70;4.53;;;24.90;54.00;;;;;;5018529;28;20068;-71
2023/07/11 07:36:29;;;;;;;7.15;3.88;;;24.90;54.00;;;;;;5033198;28;20488;-70
2023/07/11 07:38:55;;;;;;;5.45;3.65;;;25.00;53.20;;;;;;5017333;28;20063;-70
2023/07/11 07:41:21;;;;;;;6.47;4.30;;;25.00;53.10;;;;;;5032700;28;20033;-70
2023/07/11 07:43:47;;;;;;;6.47;3.95;;;25.00;53.30;;;;;;5034970;28;20125;-70
2023/07/11 07:46:15;;;;;;;7.93;4.30;;;25.00;53.70;;;;;;5033578;28;20068;-70
2023/07/11 07:48:41;;;;;;;8.20;4.22;;;25.00;53.50;;;;;;5035088;28;20052;-70
2023/07/11 07:51:10;;;;;;;9.55;4.50;;;25.10;53.80;;;;;;5001831;28;20044;-70
2023/07/11 07:53:36;;;;;;;7.68;3.50;;;25.10;53.80;;;;;;5037258;28;20117;-70
2023/07/11 07:56:03;;;;;;;5.40;3.75;;;25.20;53.90;;;;;;5038629;28;20162;-71
2023/07/11 07:58:30;;;;;;;5.65;3.58;;;25.30;54.00;;;;;;5020730;28;20093;-71
2023/07/11 08:00:56;;;;;;;10.05;3.60;;;25.50;54.00;;;;;;5037562;28;20041;-71
2023/07/11 08:03:21;;;;;;;7.75;3.40;;;25.60;53.30;;;;;;5041214;28;20056;-71
2023/07/11 08:05:47;;;;;;;6.68;3.20;;;25.70;53.10;;;;;;5014854;28;20427;-69
2023/07/11 08:08:13;;;;;;;8.68;3.03;;;25.80;53.20;;;;;;5050877;28;20037;-69
2023/07/11 08:10:38;;;;;;;6.15;3.35;;;26.10;53.20;;;;;;5032515;28;20042;-70
2023/07/11 08:13:04;;;;;;;7.07;3.20;;;26.20;52.40;;;;;;5038991;28;20083;-69
2023/07/11 08:15:30;;;;;;;5.72;2.75;;;26.30;51.90;;;;;;5036913;28;20036;-70
2023/07/11 08:17:55;;;;;;;5.18;2.60;;;26.60;51.70;;;;;;5048455;28;20468;-70
2023/07/11 08:20:21;;;;;;;6.20;3.10;;;26.80;50.90;;;;;;5030010;28;20088;-70
2023/07/11 08:22:47;;;;;;;9.00;3.03;;;26.90;50.20;;;;;;5039461;28;20041;-70
2023/07/11 08:25:14;;;;;;;6.88;2.78;;;27.10;50.00;;;;;;5015113;28;20037;-70
2023/07/11 08:27:40;;;;;;;6.50;2.65;;;27.30;49.50;;;;;;5015740;28;20438;-70
2023/07/11 08:30:06;;;;;;;5.03;2.25;;;27.30;48.90;;;;;;5008017;28;20125;-70
2023/07/11 08:32:32;;;;;;;6.07;2.15;;;27.50;48.40;;;;;;5031047;28;20372;-70
2023/07/11 08:34:58;;;;;;;7.13;2.85;;;27.60;48.40;;;;;;5013816;28;20041;-70
2023/07/11 08:37:24;;;;;;;5.40;2.47;;;27.80;48.30;;;;;;5014180;28;20053;-70
2023/07/11 08:39:50;;;;;;;5.00;2.42;;;28.00;47.60;;;;;;5030479;28;20051;-70
2023/07/11 08:42:41;;;;;;;5.22;2.42;;;28.10;47.20;;;;;;5034436;28;20037;-70
2023/07/11 08:45:24;;;;;;;6.35;2.28;;;28.30;47.30;;;;;;5050183;28;20527;-70
2023/07/11 08:48:02;;;;;;;5.00;2.25;;;28.50;46.70;;;;;;5030267;28;20041;-70
2023/07/11 08:50:33;;;;;;;4.30;2.30;;;28.60;46.30;;;;;;5032808;28;20437;-70
2023/07/11 08:53:07;;;;;;;4.35;2.10;;;28.70;45.90;;;;;;5031332;28;20048;-69
2023/07/11 08:55:35;;;;;;;6.57;2.72;;;28.90;46.00;;;;;;5033046;28;20072;-70
2023/07/11 08:58:09;;;;;;;6.90;2.53;;;28.90;45.60;;;;;;5048447;28;20047;-69
2023/07/11 09:00:36;;;;;;;6.07;2.83;;;29.00;45.30;;;;;;5033665;28;20045;-69
2023/07/11 09:03:27;;;;;;;5.10;2.33;;;29.00;45.20;;;;;;5030539;28;20044;-69
2023/07/11 09:06:06;;;;;;;4.90;2.08;;;29.10;45.40;;;;;;5031859;28;20094;-69
2023/07/11 09:08:37;;;;;;;5.50;2.35;;;29.10;45.50;;;;;;5034785;28;20443;-69
2023/07/11 09:11:27;;;;;;;7.32;2.30;;;29.20;45.60;;;;;;5036491;28;20084;-69
2023/07/11 09:14:11;;;;;;;6.10;2.50;;;29.30;44.80;;;;;;5033831;28;20033;-69
2023/07/11 09:16:41;;;;;;;6.30;1.95;;;29.40;44.70;;;;;;5035777;28;20051;-70
2023/07/11 09:19:31;;;;;;;5.35;2.17;;;29.50;44.80;;;;;;5028987;28;20041;-70
2023/07/11 09:22:20;;;;;;;6.13;2.17;;;29.70;43.10;;;;;;5035103;28;20179;-70
2023/07/11 09:24:59;;;;;;;4.50;2.17;;;29.70;43.50;;;;;;5061679;28;20060;-69
2023/07/11 09:27:42;;;;;;;4.78;1.77;;;29.80;42.30;;;;;;5032410;28;20056;-69
2023/07/11 09:30:17;;;;;;;4.63;2.05;;;29.90;42.60;;;;;;5031911;28;20052;-69
2023/07/11 09:32:43;;;;;;;4.53;1.88;;;30.00;42.50;;;;;;5017411;28;20041;-69
2023/07/11 09:35:31;;;;;;;5.00;2.20;;;30.10;42.50;;;;;;5034392;28;20370;-69
2023/07/11 09:38:13;;;;;;;3.65;1.90;;;30.20;42.70;;;;;;5033361;28;20041;-69
2023/07/11 09:41:13;;;;;;;4.95;2.15;;;30.20;42.40;;;;;;5030827;28;20045;-69
2023/07/11 09:43:39;;;;;;;5.53;1.90;;;30.30;42.20;;;;;;5031018;28;20553;-70
2023/07/11 09:46:21;;;;;;;6.68;1.75;;;30.40;42.30;;;;;;5031097;28;20037;-69
2023/07/11 09:48:50;;;;;;;5.57;1.65;;;30.60;41.90;;;;;;5034647;28;20083;-69
2023/07/11 09:51:36;;;;;;;4.63;1.80;;;30.70;41.40;;;;;;5034086;28;20039;-69
2023/07/11 09:54:15;;;;;;;3.45;1.70;;;30.80;40.90;;;;;;5033309;28;20492;-70
2023/07/11 09:56:46;;;;;;;5.53;1.92;;;30.90;40.70;;;;;;5031025;28;20037;-69
2023/07/11 09:59:14;;;;;;;5.50;2.00;;;31.00;40.30;;;;;;5032985;28;20525;-69
2023/07/11 10:01:40;;;;;;;5.47;1.70;;;31.10;40.30;;;;;;5033687;28;20385;-70
2023/07/11 10:04:15;;;;;;;6.28;2.10;;;31.20;39.80;;;;;;5035462;28;20041;-69
2023/07/11 10:06:44;;;;;;;7.47;2.15;;;31.30;39.50;;;;;;5033520;28;21559;-70
2023/07/11 10:09:33;;;;;;;4.53;2.00;;;31.40;39.50;;;;;;5030066;28;20094;-70
2023/07/11 10:12:20;;;;;;;6.63;2.28;;;31.50;39.50;;;;;;5015560;28;20076;-70
2023/07/11 10:14:53;;;;;;;5.72;2.00;;;31.60;39.20;;;;;;5034631;28;20045;-70
2023/07/11 10:17:39;;;;;;;6.22;1.85;;;31.60;39.00;;;;;;5030779;28;20049;-74
2023/07/11 10:20:12;;;;;;;4.45;1.90;;;31.60;39.10;;;;;;5031858;28;20073;-74
2023/07/11 10:22:38;;;;;;;5.65;2.10;;;31.60;39.20;;;;;;5033027;28;20049;-74
2023/07/11 10:25:26;;;;;;;5.88;2.10;;;31.60;39.40;;;;;;5033631;28;20041;-74
2023/07/11 10:28:08;;;;;;;6.97;2.25;;;31.70;39.20;;;;;;5032615;28;20123;-75
2023/07/11 10:30:37;;;;;;;6.18;1.75;;;31.80;38.80;;;;;;5032060;28;20039;-74
2023/07/11 10:33:14;;;;;;;6.28;2.55;;;31.80;38.70;;;;;;5031148;28;20470;-74
2023/07/11 10:35:41;;;;;;;5.40;1.88;;;31.90;38.70;;;;;;5031704;28;20048;-74
2023/07/11 10:38:36;;;;;;;3.58;1.70;;;31.90;38.70;;;;;;5031852;28;20109;-74
2023/07/11 10:41:03;;;;;;;4.60;2.00;;;32.00;38.00;;;;;;5024394;28;20049;-74
2023/07/11 10:43:35;;;;;;;4.63;2.00;;;32.20;37.80;;;;;;5050928;28;20040;-74
2023/07/11 10:46:09;;;;;;;4.83;1.87;;;32.10;37.70;;;;;;5070731;28;20119;-74
2023/07/11 10:48:54;;;;;;;5.50;1.95;;;32.20;37.20;;;;;;5052647;28;20043;-73
2023/07/11 10:51:22;;;;;;;4.72;2.25;;;32.20;37.30;;;;;;5045063;28;20070;-73
2023/07/11 10:53:53;;;;;;;5.57;2.17;;;32.20;37.50;;;;;;5052738;28;20072;-73
2023/07/11 10:56:33;;;;;;;4.55;1.90;;;32.30;37.40;;;;;;5052491;28;20070;-73
2023/07/11 10:58:59;;;;;;;4.55;2.25;;;32.30;37.40;;;;;;5047447;28;20515;-74
2023/07/11 11:02:09;;;;;;;5.50;2.03;;;32.30;36.80;;;;;;5052785;28;20036;-73
2023/07/11 11:05:29;;;;;;;3.80;1.80;;;32.40;36.70;;;;;;5022441;28;20044;-73
2023/07/11 11:08:06;;;;;;;5.95;2.42;;;32.30;36.90;;;;;;4938505;29;20190;-73
2023/07/11 11:10:59;;;;;;;3.70;1.80;;;32.30;36.60;;;;;;5040114;28;20397;-74
2023/07/11 11:13:52;;;;;;;3.83;1.90;;;32.40;36.70;;;;;;5054656;28;20044;-69
2023/07/11 11:16:37;;;;;;;4.05;1.70;;;32.40;36.60;;;;;;5065191;28;20032;-70
2023/07/11 11:19:03;;;;;;;4.05;1.80;;;32.40;36.50;;;;;;5056465;28;20032;-70
2023/07/11 11:21:39;;;;;;;5.43;1.92;;;32.30;36.30;;;;;;5056282;28;20039;-71
2023/07/11 11:24:36;;;;;;;4.72;1.77;;;32.30;36.60;;;;;;5056462;28;20036;-70
2023/07/11 11:27:36;;;;;;;6.13;1.88;;;32.20;36.70;;;;;;5042636;28;20040;-69
2023/07/11 11:30:18;;;;;;;5.45;2.00;;;32.20;36.80;;;;;;5035737;28;20049;-70
2023/07/11 11:32:54;;;;;;;5.57;2.45;;;32.10;36.90;;;;;;5056229;28;20035;-69
2023/07/11 11:35:22;;;;;;;4.63;1.73;;;32.10;36.90;;;;;;5035024;28;21286;-70
2023/07/11 11:38:04;;;;;;;4.63;1.90;;;32.10;37.10;;;;;;5023026;28;20376;-70
2023/07/11 11:40:33;;;;;;;6.00;2.47;;;32.00;36.90;;;;;;5054885;28;20102;-70
2023/07/11 11:43:03;;;;;;;8.25;2.80;;;32.00;37.20;;;;;;5052274;28;20423;-71
2023/07/11 11:45:30;;;;;;;5.07;2.10;;;31.90;37.10;;;;;;5048695;28;20112;-70
2023/07/11 11:48:00;;;;;;;4.20;2.00;;;31.80;37.10;;;;;;5049221;28;20040;-71
2023/07/11 11:50:28;;;;;;;5.07;2.15;;;31.80;36.90;;;;;;5045128;28;20159;-70
2023/07/11 11:53:23;;;;;;;4.63;1.73;;;31.80;36.90;;;;;;5040699;28;21643;-70
2023/07/11 11:55:55;;;;;;;4.35;1.73;;;31.90;37.00;;;;;;5041280;28;20044;-70
2023/07/11 11:58:21;;;;;;;4.03;1.98;;;31.90;36.90;;;;;;5041770;28;20048;-70
2023/07/11 12:00:54;;;;;;;2.92;1.80;;;31.90;36.80;;;;;;5041139;28;20048;-70
2023/07/11 12:03:32;;;;;;;3.70;1.80;;;31.90;36.80;;;;;;5039533;28;20040;-70
2023/07/11 12:06:19;;;;;;;7.15;2.13;;;32.00;37.00;;;;;;5041891;28;20048;-70
2023/07/11 12:08:45;;;;;;;5.07;2.50;;;31.90;37.00;;;;;;5041548;28;20196;-70
2023/07/11 12:11:10;;;;;;;5.60;2.10;;;32.00;37.20;;;;;;5028658;28;20104;-70
2023/07/11 12:13:37;;;;;;;3.90;2.28;;;32.00;37.20;;;;;;5040524;28;20037;-69
2023/07/11 12:16:27;;;;;;;6.95;2.10;;;32.00;37.30;;;;;;5042532;28;20102;-69
2023/07/11 12:18:58;;;;;;;7.07;2.35;;;32.00;37.60;;;;;;5042332;28;20055;-70
2023/07/11 12:21:38;;;;;;;5.03;2.30;;;32.00;37.50;;;;;;5043038;28;20037;-70
2023/07/11 12:24:22;;;;;;;7.57;2.20;;;32.00;37.60;;;;;;5041209;28;20044;-70
2023/07/11 12:26:49;;;;;;;6.82;2.22;;;32.00;37.80;;;;;;5028633;28;20148;-70
2023/07/11 12:29:34;;;;;;;3.83;2.42;;;32.00;37.70;;;;;;5042083;28;20041;-69
2023/07/11 12:32:48;;;;;;;6.30;2.40;;;32.00;37.90;;;;;;5039659;28;20055;-70
2023/07/11 12:35:17;;;;;;;4.53;2.10;;;31.90;37.70;;;;;;5021980;28;20091;-69
2023/07/11 12:37:46;;;;;;;3.75;1.98;;;31.80;37.70;;;;;;5062231;28;20077;-69
2023/07/11 12:40:38;;;;;;;4.63;2.08;;;31.80;38.00;;;;;;5022422;28;20052;-69
2023/07/11 12:43:15;;;;;;;3.47;2.15;;;31.70;38.70;;;;;;5004346;28;20393;-70
2023/07/11 12:45:43;;;;;;;4.45;2.08;;;31.60;38.40;;;;;;5037028;28;20415;-70
2023/07/11 12:48:15;;;;;;;4.20;2.00;;;31.60;38.70;;;;;;5038660;28;20045;-70
2023/07/11 12:50:46;;;;;;;4.05;1.90;;;31.50;38.80;;;;;;5039442;28;20393;-70
2023/07/11 12:53:13;;;;;;;4.13;2.13;;;31.50;39.20;;;;;;5019609;28;20119;-70
2023/07/11 12:55:45;;;;;;;6.28;2.05;;;31.50;39.30;;;;;;5037106;28;20546;-70
2023/07/11 12:58:26;;;;;;;6.32;2.60;;;31.50;39.40;;;;;;5037464;28;20129;-71
2023/07/11 13:00:56;;;;;;;5.35;2.55;;;31.40;39.40;;;;;;5029420;28;20082;-70